sensor_id;sensor_type;location;lat;lon;timestamp;P1;durP1;ratioP1;P2;durP2;ratioP2
15012;SDS011;7603;49.432;11.418;2023-09-30T00:01:38;13.88;;;8.20;;
15012;SDS011;7603;49.432;11.418;2023-09-30T00:04:04;14.63;;;7.80;;
15012;SDS011;7603;49.432;11.418;2023-09-30T00:06:30;12.48;;;7.32;;
15012;SDS011;7603;49.432;11.418;2023-09-30T00:08:56;13.75;;;7.35;;
15012;SDS011;7603;49.432;11.418;2023-09-30T00:11:22;13.68;;;7.68;;
15012;SDS011;7603;49.432;11.418;2023-09-30T00:13:47;13.73;;;6.93;;
15012;SDS011;7603;49.432;11.418;2023-09-30T00:16:14;10.88;;;7.05;;
15012;SDS011;7603;49.432;11.418;2023-09-30T00:18:42;11.00;;;7.75;;
15012;SDS011;7603;49.432;11.418;2023-09-30T00:21:08;8.93;;;6.32;;
15012;SDS011;7603;49.432;11.418;2023-09-30T00:23:33;10.10;;;6.68;;
15012;SDS011;7603;49.432;11.418;2023-09-30T00:25:59;9.25;;;6.55;;
15012;SDS011;7603;49.432;11.418;2023-09-30T00:28:25;10.95;;;7.18;;
15012;SDS011;7603;49.432;11.418;2023-09-30T00:30:51;12.30;;;7.13;;
15012;SDS011;7603;49.432;11.418;2023-09-30T00:33:17;9.45;;;5.70;;
15012;SDS011;7603;49.432;11.418;2023-09-30T00:35:42;10.02;;;6.32;;
15012;SDS011;7603;49.432;11.418;2023-09-30T00:38:08;11.73;;;6.63;;
15012;SDS011;7603;49.432;11.418;2023-09-30T00:40:35;9.55;;;6.57;;
15012;SDS011;7603;49.432;11.418;2023-09-30T00:43:01;12.23;;;5.80;;
15012;SDS011;7603;49.432;11.418;2023-09-30T00:45:27;12.45;;;6.70;;
15012;SDS011;7603;49.432;11.418;2023-09-30T00:47:53;9.40;;;6.15;;
15012;SDS011;7603;49.432;11.418;2023-09-30T00:50:19;8.30;;;5.22;;
15012;SDS011;7603;49.432;11.418;2023-09-30T00:52:45;9.45;;;6.15;;
15012;SDS011;7603;49.432;11.418;2023-09-30T00:55:13;8.13;;;5.75;;
15012;SDS011;7603;49.432;11.418;2023-09-30T00:57:40;7.50;;;6.00;;
15012;SDS011;7603;49.432;11.418;2023-09-30T01:00:06;7.75;;;5.95;;
15012;SDS011;7603;49.432;11.418;2023-09-30T01:02:36;7.13;;;5.60;;
15012;SDS011;7603;49.432;11.418;2023-09-30T01:05:09;9.30;;;5.93;;
15012;SDS011;7603;49.432;11.418;2023-09-30T01:07:34;8.95;;;5.30;;
15012;SDS011;7603;49.432;11.418;2023-09-30T01:10:01;7.05;;;4.85;;
15012;SDS011;7603;49.432;11.418;2023-09-30T01:12:27;7.97;;;5.15;;
15012;SDS011;7603;49.432;11.418;2023-09-30T01:14:58;7.43;;;5.60;;
15012;SDS011;7603;49.432;11.418;2023-09-30T01:17:28;11.23;;;4.82;;
15012;SDS011;7603;49.432;11.418;2023-09-30T01:19:54;10.43;;;5.43;;
15012;SDS011;7603;49.432;11.418;2023-09-30T01:22:22;6.80;;;5.15;;
15012;SDS011;7603;49.432;11.418;2023-09-30T01:24:48;8.02;;;5.32;;
15012;SDS011;7603;49.432;11.418;2023-09-30T01:27:14;9.02;;;5.40;;
15012;SDS011;7603;49.432;11.418;2023-09-30T01:29:43;7.00;;;4.97;;
15012;SDS011;7603;49.432;11.418;2023-09-30T01:32:09;5.43;;;4.82;;
15012;SDS011;7603;49.432;11.418;2023-09-30T01:34:35;7.53;;;4.75;;
15012;SDS011;7603;49.432;11.418;2023-09-30T01:37:01;8.52;;;4.72;;
15012;SDS011;7603;49.432;11.418;2023-09-30T01:39:26;8.43;;;4.80;;
15012;SDS011;7603;49.432;11.418;2023-09-30T01:41:52;6.88;;;4.90;;
15012;SDS011;7603;49.432;11.418;2023-09-30T01:44:19;8.45;;;5.15;;
15012;SDS011;7603;49.432;11.418;2023-09-30T01:46:44;6.03;;;4.57;;
15012;SDS011;7603;49.432;11.418;2023-09-30T01:49:10;6.13;;;4.45;;
15012;SDS011;7603;49.432;11.418;2023-09-30T01:51:36;7.85;;;5.22;;
15012;SDS011;7603;49.432;11.418;2023-09-30T01:54:02;7.10;;;4.97;;
15012;SDS011;7603;49.432;11.418;2023-09-30T01:56:27;7.35;;;4.97;;
15012;SDS011;7603;49.432;11.418;2023-09-30T01:58:53;7.90;;;4.60;;
15012;SDS011;7603;49.432;11.418;2023-09-30T02:01:18;5.38;;;4.35;;
15012;SDS011;7603;49.432;11.418;2023-09-30T02:03:45;6.28;;;4.63;;
15012;SDS011;7603;49.432;11.418;2023-09-30T02:06:10;8.40;;;5.13;;
15012;SDS011;7603;49.432;11.418;2023-09-30T02:08:36;7.22;;;5.13;;
15012;SDS011;7603;49.432;11.418;2023-09-30T02:11:02;6.65;;;4.80;;
15012;SDS011;7603;49.432;11.418;2023-09-30T02:13:31;6.20;;;5.03;;
15012;SDS011;7603;49.432;11.418;2023-09-30T02:16:02;5.20;;;4.32;;
15012;SDS011;7603;49.432;11.418;2023-09-30T02:18:28;6.28;;;4.43;;
15012;SDS011;7603;49.432;11.418;2023-09-30T02:20:57;6.63;;;4.70;;
15012;SDS011;7603;49.432;11.418;2023-09-30T02:23:24;8.48;;;4.90;;
15012;SDS011;7603;49.432;11.418;2023-09-30T02:25:50;5.95;;;4.72;;
15012;SDS011;7603;49.432;11.418;2023-09-30T02:28:16;6.20;;;5.15;;
15012;SDS011;7603;49.432;11.418;2023-09-30T02:30:41;6.18;;;4.93;;
15012;SDS011;7603;49.432;11.418;2023-09-30T02:33:07;7.18;;;4.90;;
15012;SDS011;7603;49.432;11.418;2023-09-30T02:35:32;7.30;;;4.90;;
15012;SDS011;7603;49.432;11.418;2023-09-30T02:37:58;9.13;;;5.25;;
15012;SDS011;7603;49.432;11.418;2023-09-30T02:40:24;7.10;;;5.10;;
15012;SDS011;7603;49.432;11.418;2023-09-30T02:42:50;8.32;;;5.22;;
15012;SDS011;7603;49.432;11.418;2023-09-30T02:45:19;6.90;;;5.00;;
15012;SDS011;7603;49.432;11.418;2023-09-30T02:47:44;6.80;;;5.35;;
15012;SDS011;7603;49.432;11.418;2023-09-30T02:50:11;7.13;;;4.93;;
15012;SDS011;7603;49.432;11.418;2023-09-30T02:52:36;7.45;;;5.13;;
15012;SDS011;7603;49.432;11.418;2023-09-30T02:55:05;9.95;;;5.25;;
15012;SDS011;7603;49.432;11.418;2023-09-30T02:57:37;5.78;;;5.15;;
15012;SDS011;7603;49.432;11.418;2023-09-30T03:00:04;7.93;;;4.82;;
15012;SDS011;7603;49.432;11.418;2023-09-30T03:02:53;8.90;;;5.07;;
15012;SDS011;7603;49.432;11.418;2023-09-30T03:05:20;8.75;;;5.22;;
15012;SDS011;7603;49.432;11.418;2023-09-30T03:07:46;6.35;;;5.10;;
15012;SDS011;7603;49.432;11.418;2023-09-30T03:10:13;5.97;;;4.68;;
15012;SDS011;7603;49.432;11.418;2023-09-30T03:12:54;5.45;;;4.95;;
15012;SDS011;7603;49.432;11.418;2023-09-30T03:15:21;7.93;;;5.05;;
15012;SDS011;7603;49.432;11.418;2023-09-30T03:17:47;6.40;;;5.18;;
15012;SDS011;7603;49.432;11.418;2023-09-30T03:20:13;6.97;;;5.03;;
15012;SDS011;7603;49.432;11.418;2023-09-30T03:22:42;6.95;;;5.13;;
15012;SDS011;7603;49.432;11.418;2023-09-30T03:25:09;6.97;;;5.25;;
15012;SDS011;7603;49.432;11.418;2023-09-30T03:27:36;5.70;;;4.65;;
15012;SDS011;7603;49.432;11.418;2023-09-30T03:30:04;6.35;;;5.13;;
15012;SDS011;7603;49.432;11.418;2023-09-30T03:32:30;11.32;;;5.93;;
15012;SDS011;7603;49.432;11.418;2023-09-30T03:34:58;6.97;;;5.80;;
15012;SDS011;7603;49.432;11.418;2023-09-30T03:37:27;8.30;;;6.32;;
15012;SDS011;7603;49.432;11.418;2023-09-30T03:39:54;7.57;;;5.55;;
15012;SDS011;7603;49.432;11.418;2023-09-30T03:42:20;8.95;;;6.50;;
15012;SDS011;7603;49.432;11.418;2023-09-30T03:44:45;7.10;;;5.95;;
15012;SDS011;7603;49.432;11.418;2023-09-30T03:47:11;11.95;;;7.40;;
15012;SDS011;7603;49.432;11.418;2023-09-30T03:49:36;7.68;;;6.97;;
15012;SDS011;7603;49.432;11.418;2023-09-30T03:52:03;8.32;;;6.70;;
15012;SDS011;7603;49.432;11.418;2023-09-30T03:54:29;9.00;;;6.97;;
15012;SDS011;7603;49.432;11.418;2023-09-30T03:56:55;12.25;;;7.50;;
15012;SDS011;7603;49.432;11.418;2023-09-30T03:59:20;8.90;;;7.18;;
15012;SDS011;7603;49.432;11.418;2023-09-30T04:01:46;11.23;;;7.45;;
15012;SDS011;7603;49.432;11.418;2023-09-30T04:04:12;9.98;;;7.57;;
15012;SDS011;7603;49.432;11.418;2023-09-30T04:06:38;8.43;;;7.53;;
15012;SDS011;7603;49.432;11.418;2023-09-30T04:09:04;11.35;;;8.15;;
15012;SDS011;7603;49.432;11.418;2023-09-30T04:11:35;8.45;;;6.63;;
15012;SDS011;7603;49.432;11.418;2023-09-30T04:14:02;7.72;;;6.63;;
15012;SDS011;7603;49.432;11.418;2023-09-30T04:16:28;7.82;;;6.32;;
15012;SDS011;7603;49.432;11.418;2023-09-30T04:18:55;9.75;;;7.05;;
15012;SDS011;7603;49.432;11.418;2023-09-30T04:21:20;7.80;;;6.50;;
15012;SDS011;7603;49.432;11.418;2023-09-30T04:23:46;6.85;;;5.88;;
15012;SDS011;7603;49.432;11.418;2023-09-30T04:26:12;6.40;;;4.82;;
15012;SDS011;7603;49.432;11.418;2023-09-30T04:28:37;4.22;;;3.92;;
15012;SDS011;7603;49.432;11.418;2023-09-30T04:31:03;4.93;;;4.53;;
15012;SDS011;7603;49.432;11.418;2023-09-30T04:33:30;4.80;;;4.15;;
15012;SDS011;7603;49.432;11.418;2023-09-30T04:35:55;5.63;;;5.10;;
15012;SDS011;7603;49.432;11.418;2023-09-30T04:38:21;6.45;;;5.13;;
15012;SDS011;7603;49.432;11.418;2023-09-30T04:40:46;5.25;;;4.75;;
15012;SDS011;7603;49.432;11.418;2023-09-30T04:43:16;6.43;;;4.95;;
15012;SDS011;7603;49.432;11.418;2023-09-30T04:45:42;5.75;;;5.20;;
15012;SDS011;7603;49.432;11.418;2023-09-30T04:48:08;4.93;;;4.53;;
15012;SDS011;7603;49.432;11.418;2023-09-30T04:50:34;7.72;;;5.53;;
15012;SDS011;7603;49.432;11.418;2023-09-30T04:52:59;10.07;;;4.93;;
15012;SDS011;7603;49.432;11.418;2023-09-30T04:55:25;5.68;;;4.78;;
15012;SDS011;7603;49.432;11.418;2023-09-30T04:57:52;5.40;;;4.90;;
15012;SDS011;7603;49.432;11.418;2023-09-30T05:00:18;5.65;;;4.63;;
15012;SDS011;7603;49.432;11.418;2023-09-30T05:02:50;6.20;;;5.00;;
15012;SDS011;7603;49.432;11.418;2023-09-30T05:05:17;4.38;;;4.05;;
15012;SDS011;7603;49.432;11.418;2023-09-30T05:07:43;6.50;;;6.00;;
15012;SDS011;7603;49.432;11.418;2023-09-30T05:10:11;4.18;;;3.70;;
15012;SDS011;7603;49.432;11.418;2023-09-30T05:12:40;6.88;;;6.18;;
15012;SDS011;7603;49.432;11.418;2023-09-30T05:15:10;3.00;;;2.80;;
15012;SDS011;7603;49.432;11.418;2023-09-30T05:17:37;5.63;;;4.10;;
15012;SDS011;7603;49.432;11.418;2023-09-30T05:20:03;6.90;;;4.55;;
15012;SDS011;7603;49.432;11.418;2023-09-30T05:22:32;3.47;;;2.97;;
15012;SDS011;7603;49.432;11.418;2023-09-30T05:25:00;3.40;;;3.03;;
15012;SDS011;7603;49.432;11.418;2023-09-30T05:27:25;3.75;;;2.90;;
15012;SDS011;7603;49.432;11.418;2023-09-30T05:29:52;3.00;;;2.80;;
15012;SDS011;7603;49.432;11.418;2023-09-30T05:32:18;3.40;;;2.53;;
15012;SDS011;7603;49.432;11.418;2023-09-30T05:34:44;6.35;;;3.00;;
15012;SDS011;7603;49.432;11.418;2023-09-30T05:37:09;3.20;;;2.90;;
15012;SDS011;7603;49.432;11.418;2023-09-30T05:39:37;3.67;;;2.90;;
15012;SDS011;7603;49.432;11.418;2023-09-30T05:42:02;5.35;;;2.63;;
15012;SDS011;7603;49.432;11.418;2023-09-30T05:44:28;6.05;;;2.95;;
15012;SDS011;7603;49.432;11.418;2023-09-30T05:46:54;3.38;;;2.75;;
15012;SDS011;7603;49.432;11.418;2023-09-30T05:49:19;3.67;;;3.13;;
15012;SDS011;7603;49.432;11.418;2023-09-30T05:51:45;3.20;;;2.88;;
15012;SDS011;7603;49.432;11.418;2023-09-30T05:54:11;3.47;;;3.17;;
15012;SDS011;7603;49.432;11.418;2023-09-30T05:56:37;8.70;;;7.68;;
15012;SDS011;7603;49.432;11.418;2023-09-30T05:59:04;10.35;;;8.60;;
15012;SDS011;7603;49.432;11.418;2023-09-30T06:01:31;8.98;;;7.20;;
15012;SDS011;7603;49.432;11.418;2023-09-30T06:03:57;5.47;;;4.85;;
15012;SDS011;7603;49.432;11.418;2023-09-30T06:06:23;4.30;;;3.33;;
15012;SDS011;7603;49.432;11.418;2023-09-30T06:08:51;3.72;;;3.35;;
15012;SDS011;7603;49.432;11.418;2023-09-30T06:11:17;4.80;;;4.40;;
15012;SDS011;7603;49.432;11.418;2023-09-30T06:13:44;8.75;;;4.60;;
15012;SDS011;7603;49.432;11.418;2023-09-30T06:16:13;5.03;;;3.75;;
15012;SDS011;7603;49.432;11.418;2023-09-30T06:18:38;5.78;;;5.20;;
15012;SDS011;7603;49.432;11.418;2023-09-30T06:21:04;6.25;;;5.65;;
15012;SDS011;7603;49.432;11.418;2023-09-30T06:23:30;5.38;;;4.10;;
15012;SDS011;7603;49.432;11.418;2023-09-30T06:25:56;4.78;;;4.28;;
15012;SDS011;7603;49.432;11.418;2023-09-30T06:28:22;5.70;;;4.10;;
15012;SDS011;7603;49.432;11.418;2023-09-30T06:30:51;6.85;;;3.90;;
15012;SDS011;7603;49.432;11.418;2023-09-30T06:33:17;4.53;;;3.40;;
15012;SDS011;7603;49.432;11.418;2023-09-30T06:35:43;5.13;;;3.42;;
15012;SDS011;7603;49.432;11.418;2023-09-30T06:38:16;7.38;;;4.18;;
15012;SDS011;7603;49.432;11.418;2023-09-30T06:40:45;4.38;;;3.88;;
15012;SDS011;7603;49.432;11.418;2023-09-30T06:43:14;5.00;;;3.90;;
15012;SDS011;7603;49.432;11.418;2023-09-30T06:45:43;3.50;;;3.17;;
15012;SDS011;7603;49.432;11.418;2023-09-30T06:48:10;5.82;;;4.00;;
15012;SDS011;7603;49.432;11.418;2023-09-30T06:50:45;5.82;;;3.70;;
15012;SDS011;7603;49.432;11.418;2023-09-30T06:53:13;5.63;;;5.05;;
15012;SDS011;7603;49.432;11.418;2023-09-30T06:55:42;5.57;;;4.97;;
15012;SDS011;7603;49.432;11.418;2023-09-30T06:58:08;5.72;;;4.78;;
15012;SDS011;7603;49.432;11.418;2023-09-30T07:00:35;5.78;;;3.45;;
15012;SDS011;7603;49.432;11.418;2023-09-30T07:03:02;4.82;;;4.35;;
15012;SDS011;7603;49.432;11.418;2023-09-30T07:05:28;5.32;;;3.90;;
15012;SDS011;7603;49.432;11.418;2023-09-30T07:07:54;3.50;;;3.20;;
15012;SDS011;7603;49.432;11.418;2023-09-30T07:10:20;11.07;;;3.83;;
15012;SDS011;7603;49.432;11.418;2023-09-30T07:12:46;4.07;;;3.78;;
15012;SDS011;7603;49.432;11.418;2023-09-30T07:15:11;6.35;;;3.90;;
15012;SDS011;7603;49.432;11.418;2023-09-30T07:17:38;5.18;;;3.78;;
15012;SDS011;7603;49.432;11.418;2023-09-30T07:20:05;5.55;;;4.97;;
15012;SDS011;7603;49.432;11.418;2023-09-30T07:22:32;5.28;;;3.72;;
15012;SDS011;7603;49.432;11.418;2023-09-30T07:24:58;4.05;;;3.65;;
15012;SDS011;7603;49.432;11.418;2023-09-30T07:27:24;4.65;;;3.97;;
15012;SDS011;7603;49.432;11.418;2023-09-30T07:29:49;4.13;;;3.72;;
15012;SDS011;7603;49.432;11.418;2023-09-30T07:32:15;5.20;;;3.40;;
15012;SDS011;7603;49.432;11.418;2023-09-30T07:34:41;4.68;;;2.72;;
15012;SDS011;7603;49.432;11.418;2023-09-30T07:37:07;4.32;;;3.88;;
15012;SDS011;7603;49.432;11.418;2023-09-30T07:39:33;4.53;;;3.70;;
15012;SDS011;7603;49.432;11.418;2023-09-30T07:41:59;5.38;;;3.15;;
15012;SDS011;7603;49.432;11.418;2023-09-30T07:44:26;3.85;;;3.30;;
15012;SDS011;7603;49.432;11.418;2023-09-30T07:46:52;4.68;;;3.45;;
15012;SDS011;7603;49.432;11.418;2023-09-30T07:49:17;5.43;;;3.50;;
15012;SDS011;7603;49.432;11.418;2023-09-30T07:51:43;5.45;;;3.60;;
15012;SDS011;7603;49.432;11.418;2023-09-30T07:54:09;4.07;;;3.50;;
15012;SDS011;7603;49.432;11.418;2023-09-30T07:56:35;7.38;;;6.65;;
15012;SDS011;7603;49.432;11.418;2023-09-30T07:59:00;6.72;;;3.90;;
15012;SDS011;7603;49.432;11.418;2023-09-30T08:01:26;3.80;;;3.50;;
15012;SDS011;7603;49.432;11.418;2023-09-30T08:03:53;3.85;;;3.00;;
15012;SDS011;7603;49.432;11.418;2023-09-30T08:06:19;5.00;;;3.50;;
15012;SDS011;7603;49.432;11.418;2023-09-30T08:08:45;4.15;;;3.75;;
15012;SDS011;7603;49.432;11.418;2023-09-30T08:11:12;4.03;;;3.22;;
15012;SDS011;7603;49.432;11.418;2023-09-30T08:13:37;5.57;;;3.28;;
15012;SDS011;7603;49.432;11.418;2023-09-30T08:16:04;4.57;;;3.17;;
15012;SDS011;7603;49.432;11.418;2023-09-30T08:18:29;3.58;;;2.90;;
15012;SDS011;7603;49.432;11.418;2023-09-30T08:20:55;5.82;;;2.90;;
15012;SDS011;7603;49.432;11.418;2023-09-30T08:23:21;5.97;;;3.05;;
15012;SDS011;7603;49.432;11.418;2023-09-30T08:25:46;5.20;;;3.03;;
15012;SDS011;7603;49.432;11.418;2023-09-30T08:28:12;2.65;;;2.45;;
15012;SDS011;7603;49.432;11.418;2023-09-30T08:30:39;3.63;;;3.33;;
15012;SDS011;7603;49.432;11.418;2023-09-30T08:33:05;6.20;;;3.20;;
15012;SDS011;7603;49.432;11.418;2023-09-30T08:35:35;4.72;;;3.35;;
15012;SDS011;7603;49.432;11.418;2023-09-30T08:38:02;4.20;;;3.25;;
15012;SDS011;7603;49.432;11.418;2023-09-30T08:40:28;6.18;;;3.20;;
15012;SDS011;7603;49.432;11.418;2023-09-30T08:42:54;4.32;;;3.22;;
15012;SDS011;7603;49.432;11.418;2023-09-30T08:45:20;3.15;;;2.45;;
15012;SDS011;7603;49.432;11.418;2023-09-30T08:47:46;4.72;;;2.60;;
15012;SDS011;7603;49.432;11.418;2023-09-30T08:50:12;4.43;;;3.30;;
15012;SDS011;7603;49.432;11.418;2023-09-30T08:52:40;4.15;;;3.00;;
15012;SDS011;7603;49.432;11.418;2023-09-30T08:55:07;5.25;;;3.10;;
15012;SDS011;7603;49.432;11.418;2023-09-30T08:57:34;3.58;;;3.22;;
15012;SDS011;7603;49.432;11.418;2023-09-30T09:00:04;3.22;;;2.97;;
15012;SDS011;7603;49.432;11.418;2023-09-30T09:02:33;5.88;;;3.92;;
15012;SDS011;7603;49.432;11.418;2023-09-30T09:05:00;3.67;;;2.95;;
15012;SDS011;7603;49.432;11.418;2023-09-30T09:07:26;5.43;;;3.17;;
15012;SDS011;7603;49.432;11.418;2023-09-30T09:10:07;5.80;;;3.60;;
15012;SDS011;7603;49.432;11.418;2023-09-30T09:12:38;5.10;;;3.30;;
15012;SDS011;7603;49.432;11.418;2023-09-30T09:15:05;3.97;;;3.67;;
15012;SDS011;7603;49.432;11.418;2023-09-30T09:17:41;4.15;;;3.55;;
15012;SDS011;7603;49.432;11.418;2023-09-30T09:20:10;4.38;;;4.03;;
15012;SDS011;7603;49.432;11.418;2023-09-30T09:22:43;3.90;;;3.60;;
15012;SDS011;7603;49.432;11.418;2023-09-30T09:25:09;3.30;;;2.88;;
15012;SDS011;7603;49.432;11.418;2023-09-30T09:27:36;3.72;;;3.42;;
15012;SDS011;7603;49.432;11.418;2023-09-30T09:35:33;3.83;;;3.53;;
15012;SDS011;7603;49.432;11.418;2023-09-30T09:38:00;3.78;;;3.47;;
15012;SDS011;7603;49.432;11.418;2023-09-30T09:40:28;5.55;;;3.75;;
15012;SDS011;7603;49.432;11.418;2023-09-30T09:42:56;4.40;;;3.33;;
15012;SDS011;7603;49.432;11.418;2023-09-30T09:45:22;4.40;;;3.10;;
15012;SDS011;7603;49.432;11.418;2023-09-30T09:47:49;3.78;;;3.08;;
15012;SDS011;7603;49.432;11.418;2023-09-30T09:50:17;4.00;;;3.47;;
15012;SDS011;7603;49.432;11.418;2023-09-30T09:52:45;4.78;;;3.33;;
15012;SDS011;7603;49.432;11.418;2023-09-30T09:55:19;4.68;;;3.35;;
15012;SDS011;7603;49.432;11.418;2023-09-30T09:57:47;3.72;;;3.15;;
15012;SDS011;7603;49.432;11.418;2023-09-30T10:00:24;4.82;;;3.55;;
15012;SDS011;7603;49.432;11.418;2023-09-30T10:02:51;3.90;;;3.60;;
15012;SDS011;7603;49.432;11.418;2023-09-30T10:05:17;4.80;;;4.25;;
15012;SDS011;7603;49.432;11.418;2023-09-30T10:07:52;3.85;;;3.53;;
15012;SDS011;7603;49.432;11.418;2023-09-30T10:10:19;4.13;;;2.88;;
15012;SDS011;7603;49.432;11.418;2023-09-30T10:12:46;7.88;;;5.20;;
15012;SDS011;7603;49.432;11.418;2023-09-30T10:15:45;3.95;;;3.55;;
15012;SDS011;7603;49.432;11.418;2023-09-30T10:20:35;3.65;;;3.28;;
15012;SDS011;7603;49.432;11.418;2023-09-30T10:25:48;4.30;;;3.20;;
15012;SDS011;7603;49.432;11.418;2023-09-30T10:31:10;3.95;;;3.25;;
15012;SDS011;7603;49.432;11.418;2023-09-30T10:36:29;5.18;;;4.07;;
15012;SDS011;7603;49.432;11.418;2023-09-30T10:38:59;6.40;;;3.70;;
15012;SDS011;7603;49.432;11.418;2023-09-30T10:41:48;4.50;;;3.08;;
15012;SDS011;7603;49.432;11.418;2023-09-30T10:46:58;4.47;;;3.35;;
15012;SDS011;7603;49.432;11.418;2023-09-30T10:54:24;3.70;;;3.00;;
15012;SDS011;7603;49.432;11.418;2023-09-30T10:56:57;3.70;;;3.28;;
15012;SDS011;7603;49.432;11.418;2023-09-30T10:59:28;2.78;;;2.58;;
15012;SDS011;7603;49.432;11.418;2023-09-30T11:02:00;4.03;;;3.15;;
15012;SDS011;7603;49.432;11.418;2023-09-30T11:04:25;3.53;;;2.85;;
15012;SDS011;7603;49.432;11.418;2023-09-30T11:06:54;4.55;;;2.78;;
15012;SDS011;7603;49.432;11.418;2023-09-30T11:09:20;4.00;;;3.10;;
15012;SDS011;7603;49.432;11.418;2023-09-30T11:11:51;4.47;;;2.95;;
15012;SDS011;7603;49.432;11.418;2023-09-30T11:16:51;3.17;;;2.88;;
15012;SDS011;7603;49.432;11.418;2023-09-30T11:19:18;3.55;;;2.92;;
15012;SDS011;7603;49.432;11.418;2023-09-30T11:21:49;5.18;;;3.53;;
15012;SDS011;7603;49.432;11.418;2023-09-30T11:24:19;4.40;;;3.63;;
15012;SDS011;7603;49.432;11.418;2023-09-30T11:26:45;4.50;;;3.33;;
15012;SDS011;7603;49.432;11.418;2023-09-30T11:29:12;3.92;;;3.38;;
15012;SDS011;7603;49.432;11.418;2023-09-30T11:31:46;4.53;;;3.30;;
15012;SDS011;7603;49.432;11.418;2023-09-30T11:34:13;2.95;;;2.65;;
15012;SDS011;7603;49.432;11.418;2023-09-30T11:36:46;3.88;;;2.63;;
15012;SDS011;7603;49.432;11.418;2023-09-30T11:39:23;4.82;;;2.97;;
15012;SDS011;7603;49.432;11.418;2023-09-30T11:41:55;3.30;;;2.90;;
15012;SDS011;7603;49.432;11.418;2023-09-30T11:44:22;3.17;;;2.97;;
15012;SDS011;7603;49.432;11.418;2023-09-30T11:49:33;3.38;;;3.08;;
15012;SDS011;7603;49.432;11.418;2023-09-30T11:52:00;4.40;;;2.92;;
15012;SDS011;7603;49.432;11.418;2023-09-30T11:54:41;4.50;;;2.88;;
15012;SDS011;7603;49.432;11.418;2023-09-30T11:59:42;2.97;;;2.67;;
15012;SDS011;7603;49.432;11.418;2023-09-30T12:02:09;2.90;;;2.70;;
15012;SDS011;7603;49.432;11.418;2023-09-30T12:04:35;5.20;;;2.75;;
15012;SDS011;7603;49.432;11.418;2023-09-30T12:07:01;6.22;;;3.03;;
15012;SDS011;7603;49.432;11.418;2023-09-30T12:09:27;7.75;;;6.97;;
15012;SDS011;7603;49.432;11.418;2023-09-30T12:11:53;10.85;;;9.75;;
15012;SDS011;7603;49.432;11.418;2023-09-30T12:14:20;5.00;;;4.05;;
15012;SDS011;7603;49.432;11.418;2023-09-30T12:16:46;6.20;;;3.63;;
15012;SDS011;7603;49.432;11.418;2023-09-30T12:19:19;3.88;;;3.40;;
15012;SDS011;7603;49.432;11.418;2023-09-30T12:21:45;3.45;;;3.15;;
15012;SDS011;7603;49.432;11.418;2023-09-30T12:24:13;3.90;;;3.45;;
15012;SDS011;7603;49.432;11.418;2023-09-30T12:26:44;3.65;;;3.35;;
15012;SDS011;7603;49.432;11.418;2023-09-30T12:29:13;4.43;;;2.88;;
15012;SDS011;7603;49.432;11.418;2023-09-30T12:31:46;3.70;;;3.38;;
15012;SDS011;7603;49.432;11.418;2023-09-30T12:34:12;3.55;;;3.20;;
15012;SDS011;7603;49.432;11.418;2023-09-30T12:36:39;5.20;;;3.67;;
15012;SDS011;7603;49.432;11.418;2023-09-30T12:39:04;4.15;;;3.75;;
15012;SDS011;7603;49.432;11.418;2023-09-30T12:41:39;4.18;;;3.78;;
15012;SDS011;7603;49.432;11.418;2023-09-30T12:44:09;3.80;;;3.50;;
15012;SDS011;7603;49.432;11.418;2023-09-30T12:46:36;3.80;;;3.50;;
15012;SDS011;7603;49.432;11.418;2023-09-30T12:49:04;3.72;;;3.42;;
15012;SDS011;7603;49.432;11.418;2023-09-30T12:51:33;4.28;;;3.80;;
15012;SDS011;7603;49.432;11.418;2023-09-30T12:54:00;6.18;;;3.67;;
15012;SDS011;7603;49.432;11.418;2023-09-30T12:56:26;3.75;;;3.45;;
15012;SDS011;7603;49.432;11.418;2023-09-30T12:58:54;3.75;;;3.45;;
15012;SDS011;7603;49.432;11.418;2023-09-30T13:01:20;3.97;;;3.60;;
15012;SDS011;7603;49.432;11.418;2023-09-30T13:03:47;4.25;;;3.80;;
15012;SDS011;7603;49.432;11.418;2023-09-30T13:06:13;3.63;;;3.33;;
15012;SDS011;7603;49.432;11.418;2023-09-30T13:08:41;5.57;;;3.60;;
15012;SDS011;7603;49.432;11.418;2023-09-30T13:11:07;6.15;;;3.53;;
15012;SDS011;7603;49.432;11.418;2023-09-30T13:13:33;4.10;;;3.53;;
15012;SDS011;7603;49.432;11.418;2023-09-30T13:16:00;5.53;;;3.88;;
15012;SDS011;7603;49.432;11.418;2023-09-30T13:18:26;3.22;;;3.03;;
15012;SDS011;7603;49.432;11.418;2023-09-30T13:20:51;4.43;;;4.03;;
15012;SDS011;7603;49.432;11.418;2023-09-30T13:23:17;4.25;;;3.10;;
15012;SDS011;7603;49.432;11.418;2023-09-30T13:25:43;3.55;;;3.20;;
15012;SDS011;7603;49.432;11.418;2023-09-30T13:28:09;4.13;;;3.72;;
15012;SDS011;7603;49.432;11.418;2023-09-30T13:30:35;3.92;;;3.53;;
15012;SDS011;7603;49.432;11.418;2023-09-30T13:33:01;4.55;;;4.15;;
15012;SDS011;7603;49.432;11.418;2023-09-30T13:35:26;3.63;;;3.22;;
15012;SDS011;7603;49.432;11.418;2023-09-30T13:37:52;3.70;;;3.35;;
15012;SDS011;7603;49.432;11.418;2023-09-30T13:40:18;3.53;;;3.22;;
15012;SDS011;7603;49.432;11.418;2023-09-30T13:42:44;5.68;;;3.50;;
15012;SDS011;7603;49.432;11.418;2023-09-30T13:45:10;3.42;;;3.13;;
15012;SDS011;7603;49.432;11.418;2023-09-30T13:47:36;3.83;;;3.53;;
15012;SDS011;7603;49.432;11.418;2023-09-30T13:50:01;3.67;;;3.38;;
15012;SDS011;7603;49.432;11.418;2023-09-30T13:52:32;3.67;;;3.33;;
15012;SDS011;7603;49.432;11.418;2023-09-30T13:54:59;3.05;;;2.83;;
15012;SDS011;7603;49.432;11.418;2023-09-30T13:57:24;3.45;;;3.15;;
15012;SDS011;7603;49.432;11.418;2023-09-30T13:59:50;4.38;;;3.58;;
15012;SDS011;7603;49.432;11.418;2023-09-30T14:02:16;3.65;;;3.35;;
15012;SDS011;7603;49.432;11.418;2023-09-30T14:04:41;3.85;;;3.50;;
15012;SDS011;7603;49.432;11.418;2023-09-30T14:07:07;4.25;;;3.58;;
15012;SDS011;7603;49.432;11.418;2023-09-30T14:09:33;3.80;;;3.50;;
15012;SDS011;7603;49.432;11.418;2023-09-30T14:11:58;3.60;;;3.30;;
15012;SDS011;7603;49.432;11.418;2023-09-30T14:14:24;4.57;;;3.60;;
15012;SDS011;7603;49.432;11.418;2023-09-30T14:16:50;3.42;;;3.15;;
15012;SDS011;7603;49.432;11.418;2023-09-30T14:19:16;3.50;;;3.20;;
15012;SDS011;7603;49.432;11.418;2023-09-30T14:21:42;4.32;;;3.92;;
15012;SDS011;7603;49.432;11.418;2023-09-30T14:24:08;3.50;;;3.20;;
15012;SDS011;7603;49.432;11.418;2023-09-30T14:26:33;3.63;;;3.33;;
15012;SDS011;7603;49.432;11.418;2023-09-30T14:28:59;3.65;;;3.35;;
15012;SDS011;7603;49.432;11.418;2023-09-30T14:31:25;3.72;;;3.30;;
15012;SDS011;7603;49.432;11.418;2023-09-30T14:33:51;3.47;;;3.17;;
15012;SDS011;7603;49.432;11.418;2023-09-30T14:36:17;3.67;;;3.38;;
15012;SDS011;7603;49.432;11.418;2023-09-30T14:38:44;4.10;;;3.53;;
15012;SDS011;7603;49.432;11.418;2023-09-30T14:41:10;4.63;;;3.90;;
15012;SDS011;7603;49.432;11.418;2023-09-30T14:43:37;4.05;;;3.30;;
15012;SDS011;7603;49.432;11.418;2023-09-30T14:46:03;3.47;;;3.17;;
15012;SDS011;7603;49.432;11.418;2023-09-30T14:48:29;3.72;;;3.42;;
15012;SDS011;7603;49.432;11.418;2023-09-30T14:50:55;4.55;;;3.40;;
15012;SDS011;7603;49.432;11.418;2023-09-30T14:53:21;3.60;;;3.05;;
15012;SDS011;7603;49.432;11.418;2023-09-30T14:55:47;3.65;;;3.35;;
15012;SDS011;7603;49.432;11.418;2023-09-30T14:58:13;4.15;;;3.75;;
15012;SDS011;7603;49.432;11.418;2023-09-30T15:00:39;3.45;;;3.15;;
15012;SDS011;7603;49.432;11.418;2023-09-30T15:03:05;3.85;;;3.55;;
15012;SDS011;7603;49.432;11.418;2023-09-30T15:05:31;3.88;;;3.47;;
15012;SDS011;7603;49.432;11.418;2023-09-30T15:07:57;4.00;;;3.45;;
15012;SDS011;7603;49.432;11.418;2023-09-30T15:10:24;4.93;;;3.80;;
15012;SDS011;7603;49.432;11.418;2023-09-30T15:12:50;3.78;;;3.53;;
15012;SDS011;7603;49.432;11.418;2023-09-30T15:15:16;3.88;;;3.40;;
15012;SDS011;7603;49.432;11.418;2023-09-30T15:17:41;5.40;;;3.95;;